Time;durP1;ratioP1;P1;durP2;ratioP2;P2;SDS_P1;SDS_P2;PMS_P1;PMS_P2;Temp;Humidity;BMP_temperature;BMP_pressure;BME280_temperature;BME280_humidity;BME280_pressure;Samples;Min_cycle;Max_cycle;Signal;HPM_P1;HPM_P2
2023/07/04 00:00:30;;;;;;;19.33;3.78;;;;;;;;;;4908847;28;98188;-81
2023/07/04 00:02:57;;;;;;;15.48;3.67;;;;;;;;;;4914561;28;98532;-81
2023/07/04 00:05:23;;;;;;;14.10;3.53;;;;;;;;;;4874442;28;99304;-81
2023/07/04 00:07:50;;;;;;;20.02;4.70;;;;;;;;;;4897945;28;98528;-81
2023/07/04 00:10:16;;;;;;;18.30;3.55;;;;;;;;;;4902312;28;101018;-81
2023/07/04 00:12:43;;;;;;;23.88;4.15;;;;;;;;;;4914840;28;98443;-81
2023/07/04 00:15:10;;;;;;;26.58;4.38;;;;;;;;;;4894412;28;98081;-81
2023/07/04 00:17:39;;;;;;;29.75;4.70;;;;;;;;;;4909733;28;98406;-81
2023/07/04 00:20:06;;;;;;;22.08;4.65;;;;;;;;;;4905987;28;98290;-81
2023/07/04 00:22:33;;;;;;;18.25;4.18;;;;;;;;;;4900852;28;99145;-81
2023/07/04 00:25:00;;;;;;;14.30;3.35;;;;;;;;;;4904760;28;98445;-82
2023/07/04 00:27:27;;;;;;;20.77;3.97;;;;;;;;;;4922444;28;98564;-81
2023/07/04 00:29:54;;;;;;;21.35;4.90;;;;;;;;;;4920825;28;98908;-81
2023/07/04 00:32:21;;;;;;;19.80;3.65;;;;;;;;;;4917976;28;98566;-80
2023/07/04 00:34:48;;;;;;;13.82;3.60;;;;;;;;;;4901983;28;99896;-81
2023/07/04 00:37:17;;;;;;;17.73;3.08;;;;;;;;;;4915198;28;98590;-81
2023/07/04 00:39:44;;;;;;;13.88;3.97;;;;;;;;;;4908171;28;98597;-81
2023/07/04 00:42:10;;;;;;;13.45;4.18;;;;;;;;;;4921943;28;98868;-81
2023/07/04 00:44:44;;;;;;;11.20;3.33;;;;;;;;;;4925264;28;98279;-82
2023/07/04 00:47:15;;;;;;;19.90;3.45;;;;;;;;;;4913906;28;100740;-81
2023/07/04 00:49:44;;;;;;;20.80;4.32;;;;;;;;;;4906259;28;98439;-81
2023/07/04 00:52:12;;;;;;;21.33;3.75;;;;;;;;;;4892743;28;98590;-81
2023/07/04 00:54:44;;;;;;;18.50;3.67;;;;;;;;;;4920025;28;99242;-82
2023/07/04 00:57:13;;;;;;;12.52;3.38;;;;;;;;;;4903499;28;101827;-81
2023/07/04 00:59:43;;;;;;;25.13;3.85;;;;;;;;;;4886219;28;98594;-80
2023/07/04 01:02:15;;;;;;;23.02;5.40;;;;;;;;;;4901956;28;98498;-80
2023/07/04 01:04:43;;;;;;;25.48;4.18;;;;;;;;;;4913861;28;101193;-80
2023/07/04 01:07:22;;;;;;;13.73;3.38;;;;;;;;;;4915480;28;98286;-81
2023/07/04 01:09:52;;;;;;;17.42;3.38;;;;;;;;;;4916755;28;98835;-80
2023/07/04 01:12:19;;;;;;;17.80;3.50;;;;;;;;;;4904717;28;97724;-81
2023/07/04 01:14:48;;;;;;;15.50;3.42;;;;;;;;;;4911639;28;98988;-80
2023/07/04 01:17:14;;;;;;;13.00;3.45;;;;;;;;;;4897767;28;98461;-80
2023/07/04 01:19:41;;;;;;;15.48;3.03;;;;;;;;;;4911453;28;99178;-80
2023/07/04 01:22:19;;;;;;;14.52;3.22;;;;;;;;;;4916805;28;98432;-80
2023/07/04 01:25:13;;;;;;;19.08;2.90;;;;;;;;;;4893608;28;99182;-80
2023/07/04 01:27:42;;;;;;;19.10;3.35;;;;;;;;;;4903252;28;98686;-80
2023/07/04 01:30:10;;;;;;;12.70;2.88;;;;;;;;;;4921460;28;98119;-80
2023/07/04 01:32:41;;;;;;;13.55;2.78;;;;;;;;;;4896181;28;98526;-80
2023/07/04 01:35:08;;;;;;;15.43;2.88;;;;;;;;;;4898248;28;98413;-80
2023/07/04 01:37:35;;;;;;;11.32;2.35;;;;;;;;;;4906704;28;100839;-80
2023/07/04 01:40:03;;;;;;;11.27;2.20;;;;;;;;;;4887242;28;98566;-79
2023/07/04 01:42:31;;;;;;;12.35;3.17;;;;;;;;;;4904107;28;100245;-79
2023/07/04 01:45:00;;;;;;;7.45;2.13;;;;;;;;;;4895145;28;100029;-79
2023/07/04 01:47:28;;;;;;;13.98;2.50;;;;;;;;;;4897614;28;98525;-79
2023/07/04 01:49:55;;;;;;;8.20;2.10;;;;;;;;;;4906943;28;98805;-80
2023/07/04 01:52:21;;;;;;;6.07;2.22;;;;;;;;;;4906286;28;98879;-80
2023/07/04 01:54:48;;;;;;;5.00;2.20;;;;;;;;;;4908646;28;99616;-80
2023/07/04 01:57:14;;;;;;;10.18;2.42;;;;;;;;;;4900568;28;100020;-80
2023/07/04 01:59:41;;;;;;;13.20;2.55;;;;;;;;;;4912065;28;98369;-81
2023/07/04 02:02:08;;;;;;;7.00;2.50;;;;;;;;;;4886732;28;100898;-80
2023/07/04 02:04:35;;;;;;;14.48;3.00;;;;;;;;;;4901473;28;100979;-80
2023/07/04 02:07:02;;;;;;;9.82;2.35;;;;;;;;;;4915553;28;98504;-80
2023/07/04 02:09:28;;;;;;;9.07;2.22;;;;;;;;;;4904988;28;99671;-80
2023/07/04 02:11:55;;;;;;;10.32;2.58;;;;;;;;;;4888319;28;102075;-80
2023/07/04 02:14:23;;;;;;;7.38;2.47;;;;;;;;;;4901373;28;98451;-81
2023/07/04 02:16:51;;;;;;;14.25;3.10;;;;;;;;;;4916879;28;98057;-80
2023/07/04 02:19:18;;;;;;;10.35;2.50;;;;;;;;;;4900992;28;98742;-81
2023/07/04 02:21:45;;;;;;;13.40;3.03;;;;;;;;;;4882717;28;98413;-80
2023/07/04 02:24:11;;;;;;;8.23;2.13;;;;;;;;;;4909126;28;98684;-80
2023/07/04 02:26:39;;;;;;;10.73;2.63;;;;;;;;;;4909848;28;97842;-80
2023/07/04 02:29:05;;;;;;;8.68;2.55;;;;;;;;;;4919399;28;98502;-80
2023/07/04 02:31:32;;;;;;;15.18;3.00;;;;;;;;;;4919083;28;98530;-80
2023/07/04 02:33:59;;;;;;;10.13;2.53;;;;;;;;;;4914176;28;99233;-81
2023/07/04 02:36:28;;;;;;;21.25;3.28;;;;;;;;;;4900723;28;101063;-80
2023/07/04 02:38:55;;;;;;;11.50;3.08;;;;;;;;;;4901209;28;98561;-80
2023/07/04 02:41:21;;;;;;;11.77;3.15;;;;;;;;;;4901628;28;99040;-80
2023/07/04 02:43:52;;;;;;;8.63;2.50;;;;;;;;;;4911588;28;100514;-80
2023/07/04 02:46:19;;;;;;;18.70;3.33;;;;;;;;;;4898169;28;98645;-80
2023/07/04 02:48:49;;;;;;;5.60;2.40;;;;;;;;;;4899965;28;99091;-81
2023/07/04 02:51:18;;;;;;;9.10;2.10;;;;;;;;;;4906064;28;98218;-80
2023/07/04 02:53:44;;;;;;;7.82;2.00;;;;;;;;;;4919614;28;98386;-79
2023/07/04 02:56:14;;;;;;;8.27;2.58;;;;;;;;;;4926580;28;100826;-79
2023/07/04 02:58:40;;;;;;;10.55;2.33;;;;;;;;;;4916746;28;99192;-80
2023/07/04 03:01:07;;;;;;;7.85;2.15;;;;;;;;;;4924662;28;98427;-79
2023/07/04 03:03:34;;;;;;;5.82;2.30;;;;;;;;;;4894970;28;100772;-80
2023/07/04 03:06:04;;;;;;;13.20;2.83;;;;;;;;;;4899465;28;98480;-79
2023/07/04 03:08:33;;;;;;;10.85;3.30;;;;;;;;;;4890034;28;100137;-79
2023/07/04 03:11:01;;;;;;;13.90;2.25;;;;;;;;;;4906271;28;100968;-80
2023/07/04 03:13:30;;;;;;;13.05;2.28;;;;;;;;;;4896051;28;98670;-80
2023/07/04 03:15:57;;;;;;;7.45;2.00;;;;;;;;;;4902955;28;99181;-80
2023/07/04 03:18:23;;;;;;;13.93;2.60;;;;;;;;;;4919692;28;98678;-80
2023/07/04 03:20:51;;;;;;;11.57;2.75;;;;;;;;;;4932838;28;100554;-81
2023/07/04 03:23:18;;;;;;;8.48;2.30;;;;;;;;;;4906905;28;99228;-81
2023/07/04 03:25:46;;;;;;;12.68;2.50;;;;;;;;;;4897262;28;98613;-81
2023/07/04 03:28:15;;;;;;;6.63;2.38;;;;;;;;;;4903517;28;98512;-82
2023/07/04 03:30:42;;;;;;;6.82;1.92;;;;;;;;;;4903426;28;98506;-81
2023/07/04 03:33:12;;;;;;;8.68;2.17;;;;;;;;;;4902746;28;98576;-81
2023/07/04 03:35:39;;;;;;;12.05;2.53;;;;;;;;;;4892103;28;98983;-80
2023/07/04 03:38:24;;;;;;;10.00;2.20;;;;;;;;;;4881098;28;101614;-81
2023/07/04 03:40:50;;;;;;;14.38;3.10;;;;;;;;;;4896999;28;97803;-81
2023/07/04 03:43:18;;;;;;;7.68;2.75;;;;;;;;;;4894396;28;102053;-80
2023/07/04 03:45:47;;;;;;;10.32;3.28;;;;;;;;;;4899455;28;98535;-80
2023/07/04 03:48:14;;;;;;;13.77;3.10;;;;;;;;;;4910405;28;99424;-81
2023/07/04 03:50:41;;;;;;;11.57;3.10;;;;;;;;;;4898797;28;99427;-82
2023/07/04 03:53:10;;;;;;;15.02;3.08;;;;;;;;;;4913532;28;98581;-81
2023/07/04 03:55:39;;;;;;;6.10;2.58;;;;;;;;;;4906521;28;101141;-81
2023/07/04 03:58:05;;;;;;;4.28;2.42;;;;;;;;;;4901920;28;99612;-81
2023/07/04 04:00:34;;;;;;;13.23;2.83;;;;;;;;;;4910044;28;98992;-82
2023/07/04 04:03:01;;;;;;;8.57;2.70;;;;;;;;;;4923776;28;98443;-81
2023/07/04 04:05:29;;;;;;;22.13;4.18;;;;;;;;;;4887616;28;97621;-82
2023/07/04 04:07:55;;;;;;;9.18;2.97;;;;;;;;;;4913184;28;99140;-81
2023/07/04 04:10:22;;;;;;;13.23;3.75;;;;;;;;;;4899331;28;99416;-81
2023/07/04 04:12:48;;;;;;;10.57;2.22;;;;;;;;;;4888478;28;99367;-81
2023/07/04 04:15:15;;;;;;;16.02;2.83;;;;;;;;;;4900850;28;100745;-81
2023/07/04 04:17:42;;;;;;;10.07;3.22;;;;;;;;;;4918786;28;99694;-81
2023/07/04 04:20:10;;;;;;;12.63;3.03;;;;;;;;;;4916933;28;98034;-81
2023/07/04 04:22:43;;;;;;;5.05;2.53;;;;;;;;;;4928051;28;98297;-81
2023/07/04 04:25:13;;;;;;;6.77;2.70;;;;;;;;;;4906274;28;98661;-81
2023/07/04 04:27:41;;;;;;;13.25;3.30;;;;;;;;;;4923567;28;98890;-81
2023/07/04 04:30:09;;;;;;;10.05;3.22;;;;;;;;;;4904232;28;97930;-81
2023/07/04 04:32:38;;;;;;;12.15;2.83;;;;;;;;;;4901717;28;98594;-81
2023/07/04 04:35:05;;;;;;;12.45;3.45;;;;;;;;;;4890459;28;98742;-80
2023/07/04 04:37:32;;;;;;;14.57;2.80;;;;;;;;;;4893399;28;102316;-81
2023/07/04 04:39:59;;;;;;;11.40;2.90;;;;;;;;;;4916230;28;98695;-80
2023/07/04 04:42:26;;;;;;;11.90;3.35;;;;;;;;;;4915759;28;98425;-80
2023/07/04 04:44:56;;;;;;;10.65;3.22;;;;;;;;;;4890194;28;101843;-81
2023/07/04 04:47:23;;;;;;;13.35;3.05;;;;;;;;;;4916820;28;98455;-80
2023/07/04 04:49:51;;;;;;;8.25;2.92;;;;;;;;;;4897665;28;99985;-81
2023/07/04 04:52:19;;;;;;;13.57;3.33;;;;;;;;;;4913538;28;98432;-81
2023/07/04 04:54:47;;;;;;;8.85;2.90;;;;;;;;;;4927286;28;100042;-82
2023/07/04 04:57:15;;;;;;;13.98;3.45;;;;;;;;;;4921145;28;99069;-81
2023/07/04 04:59:42;;;;;;;12.38;3.20;;;;;;;;;;4920197;28;98604;-81
2023/07/04 05:02:12;;;;;;;15.13;2.78;;;;;;;;;;4921763;28;99106;-81
2023/07/04 05:04:39;;;;;;;11.20;2.60;;;;;;;;;;4912853;28;100690;-82
2023/07/04 05:07:05;;;;;;;17.55;3.75;;;;;;;;;;4905067;28;98570;-81
2023/07/04 05:09:32;;;;;;;21.52;3.95;;;;;;;;;;4915002;28;98501;-81
2023/07/04 05:12:00;;;;;;;11.70;3.55;;;;;;;;;;4914944;28;98431;-81
2023/07/04 05:14:26;;;;;;;14.85;3.28;;;;;;;;;;4903814;28;98522;-81
2023/07/04 05:16:53;;;;;;;19.02;3.47;;;;;;;;;;4920775;28;98493;-81
2023/07/04 05:19:19;;;;;;;13.70;2.72;;;;;;;;;;4922789;28;97764;-81
2023/07/04 05:21:47;;;;;;;15.48;2.75;;;;;;;;;;4922253;28;98438;-81
2023/07/04 05:24:14;;;;;;;9.65;3.17;;;;;;;;;;4907429;28;99867;-81
2023/07/04 05:26:41;;;;;;;12.70;3.10;;;;;;;;;;4921520;28;98886;-81
2023/07/04 05:29:08;;;;;;;10.93;2.83;;;;;;;;;;4907226;28;102870;-81
2023/07/04 05:31:34;;;;;;;18.30;3.35;;;;;;;;;;4912617;28;98513;-82
2023/07/04 05:34:01;;;;;;;14.18;2.58;;;;;;;;;;4900075;28;98403;-82
2023/07/04 05:36:33;;;;;;;16.88;3.22;;;;;;;;;;4909032;28;98140;-81
2023/07/04 05:39:01;;;;;;;10.38;2.30;;;;;;;;;;4887955;28;99684;-81
2023/07/04 05:41:28;;;;;;;12.18;2.95;;;;;;;;;;4903729;28;98461;-81
2023/07/04 05:43:56;;;;;;;16.88;2.80;;;;;;;;;;4921626;28;97708;-82
2023/07/04 05:46:22;;;;;;;15.30;2.85;;;;;;;;;;4887884;28;98180;-82
2023/07/04 05:48:49;;;;;;;13.70;2.63;;;;;;;;;;4920423;28;99015;-82
2023/07/04 05:51:16;;;;;;;13.10;2.90;;;;;;;;;;4922873;28;99547;-81
2023/07/04 05:53:45;;;;;;;14.50;2.95;;;;;;;;;;4904547;28;98579;-82
2023/07/04 05:56:13;;;;;;;17.85;3.67;;;;;;;;;;4912564;28;98521;-81
2023/07/04 05:58:40;;;;;;;25.20;5.00;;;;;;;;;;4912169;28;98415;-82
2023/07/04 06:01:09;;;;;;;14.13;3.03;;;;;;;;;;4915202;28;99327;-81
2023/07/04 06:03:36;;;;;;;9.50;2.22;;;;;;;;;;4916972;28;98461;-82
2023/07/04 06:06:05;;;;;;;7.97;2.95;;;;;;;;;;4900729;28;99057;-81
2023/07/04 06:08:32;;;;;;;14.38;3.13;;;;;;;;;;4906986;28;100216;-81
2023/07/04 06:11:00;;;;;;;11.23;2.50;;;;;;;;;;4923874;28;99259;-81
2023/07/04 06:13:27;;;;;;;13.93;2.92;;;;;;;;;;4902682;28;97970;-82
2023/07/04 06:15:54;;;;;;;15.23;2.63;;;;;;;;;;4921361;28;99164;-82
2023/07/04 06:18:20;;;;;;;23.40;3.80;;;;;;;;;;4906433;28;98175;-81
2023/07/04 06:20:47;;;;;;;20.75;3.20;;;;;;;;;;4922674;28;98125;-81
2023/07/04 06:23:14;;;;;;;25.63;3.50;;;;;;;;;;4928784;28;98159;-81
2023/07/04 06:25:41;;;;;;;23.23;4.55;;;;;;;;;;4906395;28;97912;-81
2023/07/04 06:28:07;;;;;;;22.67;3.50;;;;;;;;;;4921658;28;101100;-82
2023/07/04 06:30:38;;;;;;;15.63;3.60;;;;;;;;;;4925539;28;98653;-82
2023/07/04 06:33:05;;;;;;;14.30;3.85;;;;;;;;;;4909703;28;97898;-82
2023/07/04 06:35:32;;;;;;;25.02;4.85;;;;;;;;;;4922610;28;98025;-82
2023/07/04 06:37:58;;;;;;;20.20;3.15;;;;;;;;;;4908377;28;98423;-82
2023/07/04 06:40:25;;;;;;;22.70;3.75;;;;;;;;;;4909297;28;98973;-82
2023/07/04 06:42:51;;;;;;;26.45;4.55;;;;;;;;;;4917677;28;99176;-82
2023/07/04 06:45:18;;;;;;;23.83;4.75;;;;;;;;;;4891960;28;97752;-82
2023/07/04 06:47:48;;;;;;;17.52;3.25;;;;;;;;;;4918398;28;98379;-82
2023/07/04 06:50:14;;;;;;;15.48;3.13;;;;;;;;;;4917695;28;99395;-82
2023/07/04 06:52:41;;;;;;;22.27;4.20;;;;;;;;;;4912162;28;98314;-82
2023/07/04 06:55:08;;;;;;;24.88;3.75;;;;;;;;;;4915593;28;99027;-83
2023/07/04 06:57:35;;;;;;;21.95;3.60;;;;;;;;;;4890552;28;97659;-82
2023/07/04 07:00:01;;;;;;;14.27;3.38;;;;;;;;;;4909746;28;98321;-82
2023/07/04 07:02:28;;;;;;;21.85;4.28;;;;;;;;;;4917186;28;98239;-82
2023/07/04 07:04:54;;;;;;;18.48;3.45;;;;;;;;;;4907901;28;99326;-83
2023/07/04 07:07:21;;;;;;;12.70;3.15;;;;;;;;;;4914106;28;98669;-82
2023/07/04 07:09:48;;;;;;;16.75;3.38;;;;;;;;;;4909404;28;98584;-82
2023/07/04 07:12:15;;;;;;;20.25;3.83;;;;;;;;;;4919631;28;98232;-82
2023/07/04 07:14:41;;;;;;;18.77;3.30;;;;;;;;;;4917394;28;98598;-82
2023/07/04 07:17:08;;;;;;;19.00;3.47;;;;;;;;;;4920740;28;98546;-82
2023/07/04 07:19:34;;;;;;;21.48;3.03;;;;;;;;;;4919046;28;98427;-82
2023/07/04 07:22:04;;;;;;;13.50;3.03;;;;;;;;;;4902210;28;97978;-82
2023/07/04 07:24:31;;;;;;;15.32;2.72;;;;;;;;;;4914370;28;98572;-83
2023/07/04 07:26:58;;;;;;;14.60;2.65;;;;;;;;;;4916978;28;98369;-83
2023/07/04 07:29:26;;;;;;;22.83;3.08;;;;;;;;;;4898539;28;102799;-83
2023/07/04 07:31:53;;;;;;;13.70;2.72;;;;;;;;;;4905111;28;98370;-83
2023/07/04 07:34:20;;;;;;;12.63;2.45;;;;;;;;;;4905451;28;99017;-82
2023/07/04 07:36:47;;;;;;;18.45;2.88;;;;;;;;;;4889145;28;98482;-82
2023/07/04 07:39:15;;;;;;;15.75;3.28;;;;;;;;;;4923884;28;97841;-82
2023/07/04 07:41:44;;;;;;;22.65;3.67;;;;;;;;;;4918555;28;98188;-82
2023/07/04 07:44:11;;;;;;;21.25;3.03;;;;;;;;;;4918790;28;98575;-82
2023/07/04 07:46:38;;;;;;;19.60;3.55;;;;;;;;;;4916473;28;97826;-81
2023/07/04 07:49:05;;;;;;;14.75;3.42;;;;;;;;;;4916108;28;98472;-82
2023/07/04 07:51:32;;;;;;;17.42;3.30;;;;;;;;;;4927283;28;98373;-81
2023/07/04 07:53:59;;;;;;;13.07;2.90;;;;;;;;;;4910609;28;99754;-81
2023/07/04 07:56:31;;;;;;;18.67;3.08;;;;;;;;;;4907831;28;100485;-82
2023/07/04 07:58:58;;;;;;;16.45;3.08;;;;;;;;;;4913115;28;99159;-82
2023/07/04 08:01:28;;;;;;;15.65;2.85;;;;;;;;;;4923937;28;98506;-82
2023/07/04 08:03:56;;;;;;;15.65;3.67;;;;;;;;;;4920878;28;98332;-82
2023/07/04 08:06:24;;;;;;;23.15;3.97;;;;;;;;;;4914400;28;97940;-81
2023/07/04 08:08:51;;;;;;;16.00;3.72;;;;;;;;;;4893429;28;98598;-82
2023/07/04 08:11:18;;;;;;;15.60;3.05;;;;;;;;;;4924882;28;97456;-82
2023/07/04 08:13:44;;;;;;;11.88;3.00;;;;;;;;;;4911623;28;98440;-81
2023/07/04 08:16:16;;;;;;;13.32;3.08;;;;;;;;;;4923589;28;98461;-81
2023/07/04 08:18:43;;;;;;;12.73;3.13;;;;;;;;;;4923630;28;99126;-81
2023/07/04 08:21:12;;;;;;;20.45;3.55;;;;;;;;;;4906907;28;99698;-81
2023/07/04 08:23:38;;;;;;;19.67;3.42;;;;;;;;;;4916906;28;98344;-81
2023/07/04 08:26:05;;;;;;;16.25;2.97;;;;;;;;;;4906026;28;98665;-81
2023/07/04 08:28:31;;;;;;;13.07;2.33;;;;;;;;;;4923923;28;98307;-82
2023/07/04 08:31:05;;;;;;;18.63;3.47;;;;;;;;;;4921874;28;98309;-82
2023/07/04 08:33:32;;;;;;;18.33;3.67;;;;;;;;;;4904054;28;100905;-82
2023/07/04 08:36:06;;;;;;;13.10;3.38;;;;;;;;;;4921050;28;97676;-82
2023/07/04 08:38:33;;;;;;;16.52;3.00;;;;;;;;;;4899820;28;99166;-82
2023/07/04 08:41:00;;;;;;;16.27;2.47;;;;;;;;;;4927111;28;100764;-82
2023/07/04 08:43:36;;;;;;;19.35;3.22;;;;;;;;;;4923060;28;99172;-83
2023/07/04 08:46:05;;;;;;;13.00;2.67;;;;;;;;;;4919407;28;99599;-81
2023/07/04 08:48:32;;;;;;;12.07;2.47;;;;;;;;;;4920763;28;99256;-83
2023/07/04 08:51:00;;;;;;;13.63;2.53;;;;;;;;;;4907039;28;98404;-82
2023/07/04 08:53:26;;;;;;;25.25;3.15;;;;;;;;;;4918290;28;99038;-82
2023/07/04 08:55:53;;;;;;;20.55;4.32;;;;;;;;;;4918800;28;99540;-82
2023/07/04 08:58:21;;;;;;;13.75;3.28;;;;;;;;;;4897326;28;98607;-82
2023/07/04 09:00:47;;;;;;;10.25;2.33;;;;;;;;;;4915823;28;98735;-82
2023/07/04 09:03:14;;;;;;;14.02;2.78;;;;;;;;;;4917207;28;100241;-83
2023/07/04 09:06:00;;;;;;;25.08;4.32;;;;;;;;;;4918984;28;98186;-83
2023/07/04 09:08:40;;;;;;;14.93;3.10;;;;;;;;;;4913795;28;99308;-82
2023/07/04 09:11:08;;;;;;;19.67;3.17;;;;;;;;;;4907457;28;99187;-82
2023/07/04 09:13:40;;;;;;;13.70;3.03;;;;;;;;;;4901518;28;100194;-82
2023/07/04 09:16:16;;;;;;;27.48;3.25;;;;;;;;;;4911806;28;98349;-82
2023/07/04 09:18:55;;;;;;;16.63;2.95;;;;;;;;;;4888263;28;98589;-82
2023/07/04 09:21:23;;;;;;;12.40;2.90;;;;;;;;;;4899674;28;99024;-84
2023/07/04 09:23:50;;;;;;;16.05;2.42;;;;;;;;;;4903971;28;100738;-82
2023/07/04 09:26:19;;;;;;;12.95;2.42;;;;;;;;;;4909474;28;97469;-83
2023/07/04 09:28:47;;;;;;;11.45;2.47;;;;;;;;;;4919960;28;98240;-83
2023/07/04 09:31:18;;;;;;;12.35;2.78;;;;;;;;;;4900248;28;98505;-83
2023/07/04 09:33:47;;;;;;;14.63;2.60;;;;;;;;;;4895439;28;99442;-82
2023/07/04 09:36:15;;;;;;;11.75;2.67;;;;;;;;;;4899768;28;101325;-83
2023/07/04 09:38:55;;;;;;;18.40;2.67;;;;;;;;;;4911512;28;98696;-82
2023/07/04 09:41:26;;;;;;;12.40;3.00;;;;;;;;;;4922068;28;100456;-83
2023/07/04 09:43:54;;;;;;;8.73;2.90;;;;;;;;;;4916420;28;98684;-83
2023/07/04 09:46:24;;;;;;;14.75;3.20;;;;;;;;;;4917123;28;98544;-82
2023/07/04 09:48:52;;;;;;;17.58;2.78;;;;;;;;;;4886144;28;101374;-82
2023/07/04 09:51:21;;;;;;;7.90;2.25;;;;;;;;;;4912738;28;99815;-82
2023/07/04 09:53:48;;;;;;;12.02;1.90;;;;;;;;;;4912126;28;98377;-83
2023/07/04 09:56:26;;;;;;;6.85;1.85;;;;;;;;;;4916222;28;98584;-82
2023/07/04 09:59:09;;;;;;;13.30;2.40;;;;;;;;;;4902093;28;98803;-83
2023/07/04 10:01:37;;;;;;;10.50;2.10;;;;;;;;;;4892839;28;98609;-82
2023/07/04 10:04:04;;;;;;;10.07;2.40;;;;;;;;;;4913982;28;98330;-82
2023/07/04 10:06:33;;;;;;;11.25;2.40;;;;;;;;;;4913243;28;98412;-81
2023/07/04 10:09:00;;;;;;;9.57;2.50;;;;;;;;;;4913414;28;98529;-82
2023/07/04 10:11:33;;;;;;;16.45;2.92;;;;;;;;;;4911516;28;98473;-82
2023/07/04 10:14:02;;;;;;;14.73;3.10;;;;;;;;;;4899784;28;98398;-82
2023/07/04 10:16:29;;;;;;;10.00;2.70;;;;;;;;;;4884106;28;99787;-83
2023/07/04 10:19:04;;;;;;;16.95;2.90;;;;;;;;;;4888292;28;98474;-82
2023/07/04 10:21:30;;;;;;;15.77;2.95;;;;;;;;;;4913348;28;100128;-82
2023/07/04 10:23:59;;;;;;;9.55;2.10;;;;;;;;;;4906828;28;100025;-82
2023/07/04 10:26:25;;;;;;;13.93;2.58;;;;;;;;;;4901152;28;98563;-82
2023/07/04 10:28:52;;;;;;;16.20;2.63;;;;;;;;;;4919398;28;98900;-82
2023/07/04 10:31:21;;;;;;;7.43;2.55;;;;;;;;;;4919135;28;98476;-82
2023/07/04 10:33:51;;;;;;;19.13;2.03;;;;;;;;;;4920000;28;98470;-83
2023/07/04 10:36:23;;;;;;;9.27;2.95;;;;;;;;;;4902762;28;98486;-83
2023/07/04 10:38:51;;;;;;;10.60;2.72;;;;;;;;;;4904680;28;99017;-82
2023/07/04 10:41:26;;;;;;;8.25;2.10;;;;;;;;;;4898963;28;97662;-82
2023/07/04 10:44:00;;;;;;;13.82;2.13;;;;;;;;;;4901823;28;99355;-83
2023/07/04 10:46:28;;;;;;;9.68;2.35;;;;;;;;;;4906503;28;98565;-82
2023/07/04 10:49:01;;;;;;;6.65;2.22;;;;;;;;;;4901527;28;101301;-82
2023/07/04 10:51:31;;;;;;;11.60;2.53;;;;;;;;;;4900741;28;98565;-82
2023/07/04 10:53:58;;;;;;;10.25;2.25;;;;;;;;;;4898052;28;98502;-82
2023/07/04 10:56:28;;;;;;;11.25;2.22;;;;;;;;;;4923755;28;101004;-81
2023/07/04 10:58:57;;;;;;;9.70;2.03;;;;;;;;;;4910527;28;98627;-82
2023/07/04 11:01:28;;;;;;;9.15;2.10;;;;;;;;;;4914485;28;98713;-82
2023/07/04 11:03:59;;;;;;;7.93;1.70;;;;;;;;;;4919155;28;98977;-82
2023/07/04 11:06:43;;;;;;;6.23;1.63;;;;;;;;;;4919395;28;97904;-82
2023/07/04 11:09:14;;;;;;;8.50;1.90;;;;;;;;;;4920059;28;98480;-82
2023/07/04 11:11:44;;;;;;;9.00;2.33;;;;;;;;;;4915920;28;99965;-81
2023/07/04 11:14:16;;;;;;;8.43;1.98;;;;;;;;;;4910819;28;99404;-82
2023/07/04 11:16:44;;;;;;;13.32;2.42;;;;;;;;;;4903688;28;98483;-82
2023/07/04 11:19:17;;;;;;;8.10;2.22;;;;;;;;;;4918109;28;99517;-83
2023/07/04 11:22:02;;;;;;;13.02;2.03;;;;;;;;;;4901370;28;98283;-81
2023/07/04 11:24:35;;;;;;;10.60;1.95;;;;;;;;;;4911279;28;98368;-80
2023/07/04 11:27:05;;;;;;;12.88;2.85;;;;;;;;;;4908719;28;98518;-81
2023/07/04 11:29:46;;;;;;;7.45;2.40;;;;;;;;;;4918143;28;99043;-81
2023/07/04 11:32:16;;;;;;;8.27;2.67;;;;;;;;;;4901512;28;97769;-80
2023/07/04 11:34:54;;;;;;;5.93;1.93;;;;;;;;;;4899548;28;98542;-80
2023/07/04 11:37:25;;;;;;;9.52;2.42;;;;;;;;;;4914550;28;98483;-82
2023/07/04 11:39:54;;;;;;;6.60;1.88;;;;;;;;;;4887887;28;99444;-82
2023/07/04 11:42:30;;;;;;;12.88;2.20;;;;;;;;;;4923204;28;97902;-80
2023/07/04 11:44:58;;;;;;;9.98;1.98;;;;;;;;;;4899168;28;102195;-81
2023/07/04 11:47:33;;;;;;;9.45;2.30;;;;;;;;;;4878584;28;98657;-82
2023/07/04 11:50:06;;;;;;;14.40;2.35;;;;;;;;;;4898607;28;98301;-80
2023/07/04 11:52:33;;;;;;;7.07;1.67;;;;;;;;;;4896375;28;101751;-80
2023/07/04 11:55:04;;;;;;;7.13;1.85;;;;;;;;;;4903307;28;98601;-80
2023/07/04 11:57:56;;;;;;;4.82;2.47;;;;;;;;;;4905430;28;98936;-81
2023/07/04 12:00:44;;;;;;;9.05;2.17;;;;;;;;;;4908245;28;98354;-81
2023/07/04 12:03:16;;;;;;;9.30;1.92;;;;;;;;;;4904958;28;98467;-82
2023/07/04 12:06:01;;;;;;;6.55;2.05;;;;;;;;;;4916374;28;99454;-78
2023/07/04 12:08:30;;;;;;;9.50;2.35;;;;;;;;;;4902269;28;98508;-82
2023/07/04 12:10:59;;;;;;;6.97;1.70;;;;;;;;;;4901373;28;98586;-80
2023/07/04 12:13:27;;;;;;;5.38;1.70;;;;;;;;;;4899748;28;98468;-81
2023/07/04 12:15:55;;;;;;;7.65;1.95;;;;;;;;;;4886156;28;98526;-81
2023/07/04 12:18:23;;;;;;;14.90;2.15;;;;;;;;;;4916688;28;98480;-81
2023/07/04 12:20:51;;;;;;;10.02;2.05;;;;;;;;;;4915769;28;98604;-81
2023/07/04 12:23:18;;;;;;;12.40;2.42;;;;;;;;;;4898770;28;97994;-81
2023/07/04 12:25:46;;;;;;;8.93;1.75;;;;;;;;;;4914767;28;98625;-80
2023/07/04 12:28:14;;;;;;;15.73;2.58;;;;;;;;;;4918993;28;98420;-80
2023/07/04 12:30:41;;;;;;;4.50;1.73;;;;;;;;;;4912514;28;99839;-81
2023/07/04 12:33:21;;;;;;;11.02;1.88;;;;;;;;;;4903708;28;98864;-79
2023/07/04 12:35:54;;;;;;;5.53;1.63;;;;;;;;;;4894139;28;98599;-81
2023/07/04 12:38:31;;;;;;;8.25;2.03;;;;;;;;;;4878605;28;100897;-80
2023/07/04 12:40:57;;;;;;;15.48;2.58;;;;;;;;;;4911936;28;98658;-80
2023/07/04 12:43:31;;;;;;;13.32;2.33;;;;;;;;;;4898734;28;98193;-81
2023/07/04 12:46:11;;;;;;;9.13;2.03;;;;;;;;;;4902894;28;98759;-81
2023/07/04 12:48:41;;;;;;;6.18;1.25;;;;;;;;;;4908904;28;97610;-80
2023/07/04 12:51:17;;;;;;;9.43;1.70;;;;;;;;;;4919335;28;100103;-80
2023/07/04 12:53:44;;;;;;;9.63;2.20;;;;;;;;;;4898867;28;99119;-81
2023/07/04 12:56:13;;;;;;;5.40;1.50;;;;;;;;;;4914000;28;99380;-80
2023/07/04 12:58:44;;;;;;;7.88;1.70;;;;;;;;;;4894950;28;98963;-81
2023/07/04 13:01:13;;;;;;;4.50;1.60;;;;;;;;;;4906404;28;100455;-81
2023/07/04 13:03:43;;;;;;;4.63;1.60;;;;;;;;;;4896611;28;98044;-78
2023/07/04 13:06:12;;;;;;;5.65;1.83;;;;;;;;;;4914699;28;98738;-80
2023/07/04 13:08:44;;;;;;;10.00;2.22;;;;;;;;;;4913674;28;98282;-81
2023/07/04 13:11:12;;;;;;;9.50;2.00;;;;;;;;;;4905557;28;98559;-80
2023/07/04 13:13:43;;;;;;;4.35;1.63;;;;;;;;;;4929031;28;98552;-82
2023/07/04 13:16:29;;;;;;;10.07;1.92;;;;;;;;;;4913113;28;98461;-83
2023/07/04 13:19:05;;;;;;;7.13;1.60;;;;;;;;;;4901132;28;98369;-81
2023/07/04 13:21:35;;;;;;;7.88;1.85;;;;;;;;;;4918211;28;99295;-83
2023/07/04 13:24:10;;;;;;;13.07;2.15;;;;;;;;;;4921082;28;97709;-81
2023/07/04 13:26:42;;;;;;;9.23;1.75;;;;;;;;;;4929617;28;99772;-82
2023/07/04 13:29:17;;;;;;;8.38;2.05;;;;;;;;;;4900838;28;98663;-82
2023/07/04 13:31:47;;;;;;;6.03;1.58;;;;;;;;;;4916350;28;98570;-82
2023/07/04 13:34:23;;;;;;;9.52;1.88;;;;;;;;;;4916889;28;98335;-80
2023/07/04 13:36:54;;;;;;;7.78;1.52;;;;;;;;;;4891741;28;98551;-79
2023/07/04 13:39:21;;;;;;;9.20;1.90;;;;;;;;;;4921051;28;97685;-83
2023/07/04 13:42:09;;;;;;;4.60;2.00;;;;;;;;;;4890231;28;101764;-80
2023/07/04 13:44:35;;;;;;;6.00;2.03;;;;;;;;;;4915278;28;98198;-80
2023/07/04 13:47:08;;;;;;;5.43;1.73;;;;;;;;;;4913514;28;99264;-82
2023/07/04 13:49:34;;;;;;;4.03;1.20;;;;;;;;;;4914584;28;98436;-80
2023/07/04 13:52:01;;;;;;;11.55;2.13;;;;;;;;;;4913285;28;98638;-80
2023/07/04 13:54:28;;;;;;;10.98;1.77;;;;;;;;;;4914629;28;98449;-82
2023/07/04 13:56:54;;;;;;;9.85;2.05;;;;;;;;;;4901192;28;99267;-82
2023/07/04 13:59:21;;;;;;;5.40;1.42;;;;;;;;;;4911654;28;98434;-82
2023/07/04 14:01:47;;;;;;;6.65;2.00;;;;;;;;;;4911899;28;98228;-80
2023/07/04 14:04:17;;;;;;;4.00;1.58;;;;;;;;;;4914943;28;97772;-80
2023/07/04 14:06:51;;;;;;;6.38;2.00;;;;;;;;;;4915588;28;98432;-80
2023/07/04 14:09:18;;;;;;;8.82;1.63;;;;;;;;;;4904521;28;98595;-83
2023/07/04 14:11:45;;;;;;;5.32;1.90;;;;;;;;;;4914525;28;99264;-81
2023/07/04 14:14:14;;;;;;;11.23;1.98;;;;;;;;;;4895551;28;98582;-80
2023/07/04 14:16:44;;;;;;;4.45;1.90;;;;;;;;;;4906828;28;98436;-81
2023/07/04 14:19:30;;;;;;;9.20;2.22;;;;;;;;;;4890438;28;98479;-83
2023/07/04 14:22:00;;;;;;;5.63;1.70;;;;;;;;;;4902953;28;99229;-82
2023/07/04 14:24:27;;;;;;;7.57;2.33;;;;;;;;;;4900099;28;98534;-79
2023/07/04 14:26:54;;;;;;;8.93;1.80;;;;;;;;;;4915160;28;98512;-82
2023/07/04 14:29:24;;;;;;;5.43;1.65;;;;;;;;;;4916322;28;97313;-82
2023/07/04 14:31:51;;;;;;;6.27;1.50;;;;;;;;;;4908506;28;98568;-83
2023/07/04 14:34:20;;;;;;;3.30;1.58;;;;;;;;;;4910565;28;98698;-80
2023/07/04 14:36:46;;;;;;;5.80;1.85;;;;;;;;;;4888903;28;99267;-81
2023/07/04 14:39:13;;;;;;;4.47;1.75;;;;;;;;;;4912967;28;98468;-82
2023/07/04 14:41:40;;;;;;;2.95;1.63;;;;;;;;;;4889926;28;100168;-83
2023/07/04 14:44:09;;;;;;;4.68;1.80;;;;;;;;;;4902587;28;98584;-80